sensor_id;sensor_type;location;lat;lon;timestamp;P1;durP1;ratioP1;P2;durP2;ratioP2
8887;SDS011;4480;52.370;9.748;2022-07-30T00:01:18;11.00;;;9.13;;
8887;SDS011;4480;52.370;9.748;2022-07-30T00:03:45;8.80;;;8.00;;
8887;SDS011;4480;52.370;9.748;2022-07-30T00:06:12;8.30;;;7.60;;
8887;SDS011;4480;52.370;9.748;2022-07-30T00:08:40;8.97;;;8.07;;
8887;SDS011;4480;52.370;9.748;2022-07-30T00:11:07;8.10;;;7.40;;
8887;SDS011;4480;52.370;9.748;2022-07-30T00:13:36;8.30;;;7.43;;
8887;SDS011;4480;52.370;9.748;2022-07-30T00:16:04;6.70;;;6.00;;
8887;SDS011;4480;52.370;9.748;2022-07-30T00:18:32;8.07;;;6.60;;
8887;SDS011;4480;52.370;9.748;2022-07-30T00:20:59;7.13;;;6.50;;
8887;SDS011;4480;52.370;9.748;2022-07-30T00:23:27;7.53;;;6.83;;
8887;SDS011;4480;52.370;9.748;2022-07-30T00:25:54;8.87;;;7.70;;
8887;SDS011;4480;52.370;9.748;2022-07-30T00:28:21;9.80;;;6.73;;
8887;SDS011;4480;52.370;9.748;2022-07-30T00:30:48;7.10;;;6.40;;
8887;SDS011;4480;52.370;9.748;2022-07-30T00:33:17;8.30;;;7.50;;
8887;SDS011;4480;52.370;9.748;2022-07-30T00:35:44;8.60;;;7.80;;
8887;SDS011;4480;52.370;9.748;2022-07-30T00:38:11;8.07;;;7.33;;
8887;SDS011;4480;52.370;9.748;2022-07-30T00:40:38;8.90;;;7.50;;
8887;SDS011;4480;52.370;9.748;2022-07-30T00:43:06;7.30;;;6.60;;
8887;SDS011;4480;52.370;9.748;2022-07-30T00:45:33;8.60;;;7.77;;
8887;SDS011;4480;52.370;9.748;2022-07-30T00:48:01;10.90;;;7.50;;
8887;SDS011;4480;52.370;9.748;2022-07-30T00:50:30;7.93;;;7.23;;
8887;SDS011;4480;52.370;9.748;2022-07-30T00:52:58;7.43;;;6.70;;
8887;SDS011;4480;52.370;9.748;2022-07-30T00:55:25;8.07;;;7.23;;
8887;SDS011;4480;52.370;9.748;2022-07-30T00:57:52;8.40;;;7.67;;
8887;SDS011;4480;52.370;9.748;2022-07-30T01:00:19;7.77;;;6.97;;
8887;SDS011;4480;52.370;9.748;2022-07-30T01:02:47;8.40;;;7.60;;
8887;SDS011;4480;52.370;9.748;2022-07-30T01:05:14;8.50;;;7.57;;
8887;SDS011;4480;52.370;9.748;2022-07-30T01:07:43;9.17;;;8.27;;
8887;SDS011;4480;52.370;9.748;2022-07-30T01:10:11;11.50;;;7.77;;
8887;SDS011;4480;52.370;9.748;2022-07-30T01:12:41;7.70;;;6.90;;
8887;SDS011;4480;52.370;9.748;2022-07-30T01:15:09;7.63;;;6.93;;
8887;SDS011;4480;52.370;9.748;2022-07-30T01:17:37;7.77;;;7.10;;
8887;SDS011;4480;52.370;9.748;2022-07-30T01:20:05;7.07;;;6.47;;
8887;SDS011;4480;52.370;9.748;2022-07-30T01:22:40;11.40;;;7.07;;
8887;SDS011;4480;52.370;9.748;2022-07-30T01:25:16;8.97;;;6.00;;
8887;SDS011;4480;52.370;9.748;2022-07-30T01:27:52;7.50;;;6.80;;
8887;SDS011;4480;52.370;9.748;2022-07-30T01:30:24;7.37;;;6.50;;
8887;SDS011;4480;52.370;9.748;2022-07-30T01:32:54;7.43;;;6.63;;
8887;SDS011;4480;52.370;9.748;2022-07-30T01:35:23;8.33;;;6.30;;
8887;SDS011;4480;52.370;9.748;2022-07-30T01:37:53;7.63;;;6.90;;
8887;SDS011;4480;52.370;9.748;2022-07-30T01:40:23;6.83;;;6.20;;
8887;SDS011;4480;52.370;9.748;2022-07-30T01:42:54;6.67;;;6.07;;
8887;SDS011;4480;52.370;9.748;2022-07-30T01:45:23;6.80;;;6.20;;
8887;SDS011;4480;52.370;9.748;2022-07-30T01:47:52;6.53;;;6.00;;
8887;SDS011;4480;52.370;9.748;2022-07-30T01:50:21;6.70;;;6.20;;
8887;SDS011;4480;52.370;9.748;2022-07-30T01:52:49;8.73;;;7.30;;
8887;SDS011;4480;52.370;9.748;2022-07-30T01:55:19;13.13;;;7.10;;
8887;SDS011;4480;52.370;9.748;2022-07-30T01:57:50;9.73;;;7.00;;
8887;SDS011;4480;52.370;9.748;2022-07-30T02:00:20;9.10;;;7.30;;
8887;SDS011;4480;52.370;9.748;2022-07-30T02:02:49;7.47;;;6.80;;
8887;SDS011;4480;52.370;9.748;2022-07-30T02:05:18;9.53;;;7.30;;
8887;SDS011;4480;52.370;9.748;2022-07-30T02:07:48;7.47;;;6.63;;
8887;SDS011;4480;52.370;9.748;2022-07-30T02:10:23;7.50;;;6.90;;
8887;SDS011;4480;52.370;9.748;2022-07-30T02:12:56;7.07;;;6.40;;
8887;SDS011;4480;52.370;9.748;2022-07-30T02:15:27;7.47;;;6.70;;
8887;SDS011;4480;52.370;9.748;2022-07-30T02:17:59;7.20;;;6.50;;
8887;SDS011;4480;52.370;9.748;2022-07-30T02:20:29;8.37;;;7.57;;
8887;SDS011;4480;52.370;9.748;2022-07-30T02:22:59;7.87;;;7.07;;
8887;SDS011;4480;52.370;9.748;2022-07-30T02:25:28;7.67;;;6.93;;
8887;SDS011;4480;52.370;9.748;2022-07-30T02:28:01;8.30;;;6.43;;
8887;SDS011;4480;52.370;9.748;2022-07-30T02:30:33;7.60;;;6.80;;
8887;SDS011;4480;52.370;9.748;2022-07-30T02:33:04;9.83;;;7.20;;
8887;SDS011;4480;52.370;9.748;2022-07-30T02:35:35;6.80;;;6.20;;
8887;SDS011;4480;52.370;9.748;2022-07-30T02:38:03;7.50;;;6.30;;
8887;SDS011;4480;52.370;9.748;2022-07-30T02:40:32;7.47;;;6.87;;
8887;SDS011;4480;52.370;9.748;2022-07-30T02:42:59;9.60;;;7.10;;
8887;SDS011;4480;52.370;9.748;2022-07-30T02:45:27;8.03;;;6.83;;
8887;SDS011;4480;52.370;9.748;2022-07-30T02:47:58;7.40;;;6.70;;
8887;SDS011;4480;52.370;9.748;2022-07-30T02:50:28;7.87;;;7.27;;
8887;SDS011;4480;52.370;9.748;2022-07-30T02:52:56;8.07;;;7.30;;
8887;SDS011;4480;52.370;9.748;2022-07-30T02:55:25;9.20;;;7.30;;
8887;SDS011;4480;52.370;9.748;2022-07-30T02:57:55;8.03;;;7.23;;
8887;SDS011;4480;52.370;9.748;2022-07-30T03:00:24;10.93;;;7.13;;
8887;SDS011;4480;52.370;9.748;2022-07-30T03:02:55;7.40;;;6.67;;
8887;SDS011;4480;52.370;9.748;2022-07-30T03:05:24;8.13;;;7.33;;
8887;SDS011;4480;52.370;9.748;2022-07-30T03:07:53;8.20;;;7.47;;
8887;SDS011;4480;52.370;9.748;2022-07-30T03:10:23;8.53;;;7.83;;
8887;SDS011;4480;52.370;9.748;2022-07-30T03:12:51;7.97;;;7.37;;
8887;SDS011;4480;52.370;9.748;2022-07-30T03:15:19;8.40;;;7.70;;
8887;SDS011;4480;52.370;9.748;2022-07-30T03:17:47;8.23;;;7.43;;
8887;SDS011;4480;52.370;9.748;2022-07-30T03:20:19;10.23;;;7.50;;
8887;SDS011;4480;52.370;9.748;2022-07-30T03:22:50;9.03;;;8.13;;
8887;SDS011;4480;52.370;9.748;2022-07-30T03:25:24;9.20;;;8.20;;
8887;SDS011;4480;52.370;9.748;2022-07-30T03:27:53;11.13;;;8.10;;
8887;SDS011;4480;52.370;9.748;2022-07-30T03:30:23;10.40;;;9.40;;
8887;SDS011;4480;52.370;9.748;2022-07-30T03:32:52;9.97;;;9.07;;
8887;SDS011;4480;52.370;9.748;2022-07-30T03:35:21;10.67;;;9.67;;
8887;SDS011;4480;52.370;9.748;2022-07-30T03:37:52;10.37;;;9.37;;
8887;SDS011;4480;52.370;9.748;2022-07-30T03:40:21;8.83;;;8.13;;
8887;SDS011;4480;52.370;9.748;2022-07-30T03:42:48;9.00;;;8.30;;
8887;SDS011;4480;52.370;9.748;2022-07-30T03:45:17;10.20;;;9.23;;
8887;SDS011;4480;52.370;9.748;2022-07-30T03:47:45;11.60;;;8.97;;
8887;SDS011;4480;52.370;9.748;2022-07-30T03:50:13;9.70;;;8.80;;
8887;SDS011;4480;52.370;9.748;2022-07-30T03:52:40;9.43;;;8.53;;
8887;SDS011;4480;52.370;9.748;2022-07-30T03:55:10;10.27;;;9.23;;
8887;SDS011;4480;52.370;9.748;2022-07-30T03:57:38;8.63;;;7.83;;
8887;SDS011;4480;52.370;9.748;2022-07-30T04:00:06;13.50;;;8.70;;
8887;SDS011;4480;52.370;9.748;2022-07-30T04:02:40;8.87;;;8.00;;
8887;SDS011;4480;52.370;9.748;2022-07-30T04:05:08;10.43;;;9.30;;
8887;SDS011;4480;52.370;9.748;2022-07-30T04:10:01;11.30;;;9.53;;
8887;SDS011;4480;52.370;9.748;2022-07-30T04:12:28;9.43;;;8.53;;
8887;SDS011;4480;52.370;9.748;2022-07-30T04:14:55;9.60;;;8.77;;
8887;SDS011;4480;52.370;9.748;2022-07-30T04:17:24;9.07;;;8.30;;
8887;SDS011;4480;52.370;9.748;2022-07-30T04:19:55;10.40;;;9.40;;
8887;SDS011;4480;52.370;9.748;2022-07-30T04:22:27;10.43;;;9.43;;
8887;SDS011;4480;52.370;9.748;2022-07-30T04:24:58;10.60;;;9.60;;
8887;SDS011;4480;52.370;9.748;2022-07-30T04:27:29;10.10;;;9.20;;
8887;SDS011;4480;52.370;9.748;2022-07-30T04:29:57;9.60;;;8.80;;
8887;SDS011;4480;52.370;9.748;2022-07-30T04:32:24;9.20;;;8.30;;
8887;SDS011;4480;52.370;9.748;2022-07-30T04:34:52;9.73;;;8.93;;
8887;SDS011;4480;52.370;9.748;2022-07-30T04:37:21;9.40;;;8.43;;
8887;SDS011;4480;52.370;9.748;2022-07-30T04:39:49;9.47;;;8.53;;
8887;SDS011;4480;52.370;9.748;2022-07-30T04:42:20;9.20;;;8.30;;
8887;SDS011;4480;52.370;9.748;2022-07-30T04:44:47;10.00;;;9.00;;
8887;SDS011;4480;52.370;9.748;2022-07-30T04:47:15;10.30;;;9.27;;
8887;SDS011;4480;52.370;9.748;2022-07-30T04:49:42;8.70;;;7.93;;
8887;SDS011;4480;52.370;9.748;2022-07-30T04:52:10;11.63;;;8.97;;
8887;SDS011;4480;52.370;9.748;2022-07-30T04:54:39;9.20;;;8.30;;
8887;SDS011;4480;52.370;9.748;2022-07-30T04:57:10;9.87;;;8.97;;
8887;SDS011;4480;52.370;9.748;2022-07-30T04:59:40;10.30;;;9.30;;
8887;SDS011;4480;52.370;9.748;2022-07-30T05:02:07;9.90;;;8.90;;
8887;SDS011;4480;52.370;9.748;2022-07-30T05:04:37;9.03;;;8.20;;
8887;SDS011;4480;52.370;9.748;2022-07-30T05:07:06;9.90;;;8.90;;
8887;SDS011;4480;52.370;9.748;2022-07-30T05:09:34;11.30;;;9.90;;
8887;SDS011;4480;52.370;9.748;2022-07-30T05:12:02;9.93;;;9.03;;
8887;SDS011;4480;52.370;9.748;2022-07-30T05:14:29;10.70;;;9.70;;
8887;SDS011;4480;52.370;9.748;2022-07-30T05:16:58;11.90;;;10.60;;
8887;SDS011;4480;52.370;9.748;2022-07-30T05:19:25;12.37;;;10.57;;
8887;SDS011;4480;52.370;9.748;2022-07-30T05:21:53;11.73;;;10.73;;
8887;SDS011;4480;52.370;9.748;2022-07-30T05:24:20;11.80;;;10.70;;
8887;SDS011;4480;52.370;9.748;2022-07-30T05:26:47;12.60;;;11.30;;
8887;SDS011;4480;52.370;9.748;2022-07-30T05:29:15;12.40;;;11.23;;
8887;SDS011;4480;52.370;9.748;2022-07-30T05:31:42;12.50;;;11.40;;
8887;SDS011;4480;52.370;9.748;2022-07-30T05:34:10;12.43;;;11.13;;
8887;SDS011;4480;52.370;9.748;2022-07-30T05:36:37;12.30;;;10.83;;
8887;SDS011;4480;52.370;9.748;2022-07-30T05:39:05;12.70;;;11.50;;
8887;SDS011;4480;52.370;9.748;2022-07-30T05:41:32;12.67;;;11.33;;
8887;SDS011;4480;52.370;9.748;2022-07-30T05:43:59;12.93;;;11.73;;
8887;SDS011;4480;52.370;9.748;2022-07-30T05:46:27;13.60;;;12.40;;
8887;SDS011;4480;52.370;9.748;2022-07-30T05:48:55;12.33;;;11.23;;
8887;SDS011;4480;52.370;9.748;2022-07-30T05:51:24;12.47;;;11.37;;
8887;SDS011;4480;52.370;9.748;2022-07-30T05:53:51;11.80;;;10.60;;
8887;SDS011;4480;52.370;9.748;2022-07-30T05:56:18;12.20;;;10.97;;
8887;SDS011;4480;52.370;9.748;2022-07-30T05:58:45;11.70;;;10.70;;
8887;SDS011;4480;52.370;9.748;2022-07-30T06:01:13;11.47;;;10.30;;
8887;SDS011;4480;52.370;9.748;2022-07-30T06:03:40;9.93;;;9.03;;
8887;SDS011;4480;52.370;9.748;2022-07-30T06:06:07;10.73;;;9.73;;
8887;SDS011;4480;52.370;9.748;2022-07-30T06:08:36;10.27;;;9.20;;
8887;SDS011;4480;52.370;9.748;2022-07-30T06:11:03;11.60;;;9.70;;
8887;SDS011;4480;52.370;9.748;2022-07-30T06:13:33;10.70;;;9.60;;
8887;SDS011;4480;52.370;9.748;2022-07-30T06:16:00;10.90;;;9.90;;
8887;SDS011;4480;52.370;9.748;2022-07-30T06:18:27;10.77;;;9.77;;
8887;SDS011;4480;52.370;9.748;2022-07-30T06:20:55;10.60;;;9.37;;
8887;SDS011;4480;52.370;9.748;2022-07-30T06:23:22;9.70;;;8.80;;
8887;SDS011;4480;52.370;9.748;2022-07-30T06:25:51;10.47;;;9.60;;
8887;SDS011;4480;52.370;9.748;2022-07-30T06:28:18;9.37;;;8.47;;
8887;SDS011;4480;52.370;9.748;2022-07-30T06:30:45;9.63;;;8.73;;
8887;SDS011;4480;52.370;9.748;2022-07-30T06:33:13;8.83;;;8.03;;
8887;SDS011;4480;52.370;9.748;2022-07-30T06:35:41;8.93;;;8.17;;
8887;SDS011;4480;52.370;9.748;2022-07-30T06:38:08;8.00;;;7.40;;
8887;SDS011;4480;52.370;9.748;2022-07-30T06:40:35;8.80;;;7.70;;
8887;SDS011;4480;52.370;9.748;2022-07-30T06:43:04;8.77;;;7.00;;
8887;SDS011;4480;52.370;9.748;2022-07-30T06:45:31;7.53;;;6.80;;
8887;SDS011;4480;52.370;9.748;2022-07-30T06:47:58;8.07;;;7.35;;
8887;SDS011;4480;52.370;9.748;2022-07-30T06:50:26;9.10;;;8.07;;
8887;SDS011;4480;52.370;9.748;2022-07-30T06:52:53;8.10;;;6.70;;
8887;SDS011;4480;52.370;9.748;2022-07-30T06:55:21;7.40;;;6.80;;
8887;SDS011;4480;52.370;9.748;2022-07-30T06:57:48;7.03;;;6.37;;
8887;SDS011;4480;52.370;9.748;2022-07-30T07:00:17;7.03;;;6.33;;
8887;SDS011;4480;52.370;9.748;2022-07-30T07:02:44;7.20;;;6.57;;
8887;SDS011;4480;52.370;9.748;2022-07-30T07:05:12;7.40;;;6.70;;
8887;SDS011;4480;52.370;9.748;2022-07-30T07:07:40;6.83;;;6.20;;
8887;SDS011;4480;52.370;9.748;2022-07-30T07:10:08;6.87;;;6.27;;
8887;SDS011;4480;52.370;9.748;2022-07-30T07:12:35;6.77;;;6.17;;
8887;SDS011;4480;52.370;9.748;2022-07-30T07:15:03;6.30;;;5.83;;
8887;SDS011;4480;52.370;9.748;2022-07-30T07:17:33;6.60;;;6.00;;
8887;SDS011;4480;52.370;9.748;2022-07-30T07:20:00;6.87;;;6.00;;
8887;SDS011;4480;52.370;9.748;2022-07-30T07:22:27;6.43;;;5.83;;
8887;SDS011;4480;52.370;9.748;2022-07-30T07:24:54;8.07;;;5.53;;
8887;SDS011;4480;52.370;9.748;2022-07-30T07:27:22;5.60;;;5.10;;
8887;SDS011;4480;52.370;9.748;2022-07-30T07:29:49;7.30;;;5.53;;
8887;SDS011;4480;52.370;9.748;2022-07-30T07:32:17;6.20;;;4.77;;
8887;SDS011;4480;52.370;9.748;2022-07-30T07:34:45;6.63;;;5.53;;
8887;SDS011;4480;52.370;9.748;2022-07-30T07:37:13;5.50;;;5.10;;
8887;SDS011;4480;52.370;9.748;2022-07-30T07:39:40;7.13;;;5.40;;
8887;SDS011;4480;52.370;9.748;2022-07-30T07:42:08;4.40;;;4.10;;
8887;SDS011;4480;52.370;9.748;2022-07-30T07:44:35;7.70;;;5.47;;
8887;SDS011;4480;52.370;9.748;2022-07-30T07:47:03;5.07;;;4.27;;
8887;SDS011;4480;52.370;9.748;2022-07-30T07:49:30;5.40;;;4.93;;
8887;SDS011;4480;52.370;9.748;2022-07-30T07:51:59;5.03;;;4.63;;
8887;SDS011;4480;52.370;9.748;2022-07-30T07:54:26;4.63;;;4.20;;
8887;SDS011;4480;52.370;9.748;2022-07-30T07:56:53;5.20;;;4.80;;
8887;SDS011;4480;52.370;9.748;2022-07-30T07:59:21;4.50;;;4.10;;
8887;SDS011;4480;52.370;9.748;2022-07-30T08:01:51;5.17;;;4.70;;
8887;SDS011;4480;52.370;9.748;2022-07-30T08:04:18;4.10;;;3.63;;
8887;SDS011;4480;52.370;9.748;2022-07-30T08:06:45;4.63;;;4.20;;
8887;SDS011;4480;52.370;9.748;2022-07-30T08:09:14;6.50;;;5.50;;
8887;SDS011;4480;52.370;9.748;2022-07-30T08:11:43;4.97;;;4.17;;
8887;SDS011;4480;52.370;9.748;2022-07-30T08:14:10;4.77;;;4.37;;
8887;SDS011;4480;52.370;9.748;2022-07-30T08:16:37;5.27;;;4.77;;
8887;SDS011;4480;52.370;9.748;2022-07-30T08:19:05;4.50;;;4.10;;
8887;SDS011;4480;52.370;9.748;2022-07-30T08:21:32;4.30;;;3.90;;
8887;SDS011;4480;52.370;9.748;2022-07-30T08:23:59;4.70;;;4.30;;
8887;SDS011;4480;52.370;9.748;2022-07-30T08:26:28;3.97;;;3.67;;
8887;SDS011;4480;52.370;9.748;2022-07-30T08:28:55;4.20;;;3.90;;
8887;SDS011;4480;52.370;9.748;2022-07-30T08:31:22;3.70;;;3.40;;
8887;SDS011;4480;52.370;9.748;2022-07-30T08:33:50;4.20;;;3.80;;
8887;SDS011;4480;52.370;9.748;2022-07-30T08:36:17;3.87;;;3.57;;
8887;SDS011;4480;52.370;9.748;2022-07-30T08:38:44;3.70;;;3.40;;
8887;SDS011;4480;52.370;9.748;2022-07-30T08:41:11;3.97;;;3.57;;
8887;SDS011;4480;52.370;9.748;2022-07-30T08:43:43;4.63;;;2.97;;
8887;SDS011;4480;52.370;9.748;2022-07-30T08:46:13;3.63;;;3.33;;
8887;SDS011;4480;52.370;9.748;2022-07-30T08:48:43;3.00;;;2.80;;
8887;SDS011;4480;52.370;9.748;2022-07-30T08:51:11;4.13;;;3.73;;
8887;SDS011;4480;52.370;9.748;2022-07-30T08:53:38;4.13;;;3.53;;
8887;SDS011;4480;52.370;9.748;2022-07-30T08:56:07;4.67;;;3.07;;
8887;SDS011;4480;52.370;9.748;2022-07-30T08:58:34;3.40;;;2.93;;
8887;SDS011;4480;52.370;9.748;2022-07-30T09:01:03;3.60;;;2.80;;
8887;SDS011;4480;52.370;9.748;2022-07-30T09:03:31;2.60;;;2.40;;
8887;SDS011;4480;52.370;9.748;2022-07-30T09:05:59;3.53;;;3.20;;
8887;SDS011;4480;52.370;9.748;2022-07-30T09:08:27;3.63;;;2.87;;
8887;SDS011;4480;52.370;9.748;2022-07-30T09:10:55;2.93;;;2.60;;
8887;SDS011;4480;52.370;9.748;2022-07-30T09:13:23;2.73;;;2.50;;
8887;SDS011;4480;52.370;9.748;2022-07-30T09:15:52;3.80;;;2.70;;
8887;SDS011;4480;52.370;9.748;2022-07-30T09:18:27;2.33;;;2.13;;
8887;SDS011;4480;52.370;9.748;2022-07-30T09:20:57;3.50;;;2.60;;
8887;SDS011;4480;52.370;9.748;2022-07-30T09:23:25;2.60;;;2.40;;
8887;SDS011;4480;52.370;9.748;2022-07-30T09:25:52;3.40;;;3.07;;
8887;SDS011;4480;52.370;9.748;2022-07-30T09:28:26;3.50;;;2.90;;
8887;SDS011;4480;52.370;9.748;2022-07-30T09:30:55;4.20;;;2.80;;
8887;SDS011;4480;52.370;9.748;2022-07-30T09:33:31;3.50;;;2.80;;
8887;SDS011;4480;52.370;9.748;2022-07-30T09:36:00;4.43;;;3.43;;
8887;SDS011;4480;52.370;9.748;2022-07-30T09:38:28;3.27;;;2.97;;
8887;SDS011;4480;52.370;9.748;2022-07-30T09:40:56;4.27;;;2.93;;
8887;SDS011;4480;52.370;9.748;2022-07-30T09:43:24;5.37;;;3.37;;
8887;SDS011;4480;52.370;9.748;2022-07-30T09:45:52;4.27;;;3.87;;
8887;SDS011;4480;52.370;9.748;2022-07-30T09:48:25;4.70;;;3.40;;
8887;SDS011;4480;52.370;9.748;2022-07-30T09:50:55;4.13;;;3.73;;
8887;SDS011;4480;52.370;9.748;2022-07-30T09:53:22;3.40;;;3.10;;
8887;SDS011;4480;52.370;9.748;2022-07-30T09:55:49;4.87;;;3.67;;
8887;SDS011;4480;52.370;9.748;2022-07-30T09:58:16;3.30;;;2.93;;
8887;SDS011;4480;52.370;9.748;2022-07-30T10:00:44;5.30;;;3.60;;
8887;SDS011;4480;52.370;9.748;2022-07-30T10:03:15;3.80;;;3.50;;
8887;SDS011;4480;52.370;9.748;2022-07-30T10:05:50;4.97;;;3.70;;
8887;SDS011;4480;52.370;9.748;2022-07-30T10:08:19;3.40;;;2.90;;
8887;SDS011;4480;52.370;9.748;2022-07-30T10:11:03;3.33;;;3.03;;
8887;SDS011;4480;52.370;9.748;2022-07-30T10:13:30;4.70;;;3.63;;
8887;SDS011;4480;52.370;9.748;2022-07-30T10:15:59;4.00;;;3.70;;
8887;SDS011;4480;52.370;9.748;2022-07-30T10:18:26;5.83;;;3.80;;
8887;SDS011;4480;52.370;9.748;2022-07-30T10:20:54;4.57;;;4.10;;
8887;SDS011;4480;52.370;9.748;2022-07-30T10:23:23;4.93;;;3.90;;
8887;SDS011;4480;52.370;9.748;2022-07-30T10:25:54;4.23;;;3.03;;
8887;SDS011;4480;52.370;9.748;2022-07-30T10:28:22;4.73;;;3.60;;
8887;SDS011;4480;52.370;9.748;2022-07-30T10:30:50;3.20;;;2.90;;
8887;SDS011;4480;52.370;9.748;2022-07-30T10:33:17;3.70;;;3.40;;
8887;SDS011;4480;52.370;9.748;2022-07-30T10:35:48;3.87;;;3.57;;
8887;SDS011;4480;52.370;9.748;2022-07-30T10:38:15;3.70;;;3.40;;
8887;SDS011;4480;52.370;9.748;2022-07-30T10:40:48;3.70;;;3.40;;
8887;SDS011;4480;52.370;9.748;2022-07-30T10:46:31;3.70;;;3.23;;
8887;SDS011;4480;52.370;9.748;2022-07-30T10:49:09;3.60;;;3.30;;
8887;SDS011;4480;52.370;9.748;2022-07-30T10:51:42;4.53;;;3.80;;
8887;SDS011;4480;52.370;9.748;2022-07-30T10:57:08;4.30;;;3.90;;
8887;SDS011;4480;52.370;9.748;2022-07-30T11:02:37;4.07;;;3.67;;
8887;SDS011;4480;52.370;9.748;2022-07-30T11:05:23;5.37;;;3.20;;
8887;SDS011;4480;52.370;9.748;2022-07-30T11:07:52;4.00;;;3.20;;
8887;SDS011;4480;52.370;9.748;2022-07-30T11:10:33;5.73;;;3.50;;
8887;SDS011;4480;52.370;9.748;2022-07-30T11:13:04;5.53;;;3.47;;
8887;SDS011;4480;52.370;9.748;2022-07-30T11:18:18;3.87;;;3.03;;
8887;SDS011;4480;52.370;9.748;2022-07-30T11:23:45;3.87;;;3.03;;
8887;SDS011;4480;52.370;9.748;2022-07-30T11:34:50;3.00;;;2.63;;
8887;SDS011;4480;52.370;9.748;2022-07-30T11:37:17;3.10;;;2.80;;
8887;SDS011;4480;52.370;9.748;2022-07-30T11:42:38;3.20;;;3.00;;
8887;SDS011;4480;52.370;9.748;2022-07-30T11:45:23;3.63;;;3.17;;
8887;SDS011;4480;52.370;9.748;2022-07-30T11:47:56;2.97;;;2.70;;
8887;SDS011;4480;52.370;9.748;2022-07-30T11:50:26;3.80;;;3.13;;
8887;SDS011;4480;52.370;9.748;2022-07-30T11:52:56;4.60;;;2.90;;
8887;SDS011;4480;52.370;9.748;2022-07-30T11:55:25;5.33;;;3.30;;
8887;SDS011;4480;52.370;9.748;2022-07-30T11:57:57;5.40;;;3.43;;
8887;SDS011;4480;52.370;9.748;2022-07-30T12:00:31;3.33;;;3.03;;
8887;SDS011;4480;52.370;9.748;2022-07-30T12:03:06;3.40;;;3.10;;
8887;SDS011;4480;52.370;9.748;2022-07-30T12:05:35;3.17;;;2.87;;
8887;SDS011;4480;52.370;9.748;2022-07-30T12:08:03;3.47;;;3.17;;
8887;SDS011;4480;52.370;9.748;2022-07-30T12:10:31;3.77;;;3.47;;
8887;SDS011;4480;52.370;9.748;2022-07-30T12:13:06;2.90;;;2.63;;
8887;SDS011;4480;52.370;9.748;2022-07-30T12:15:37;4.93;;;3.47;;
8887;SDS011;4480;52.370;9.748;2022-07-30T12:18:06;4.33;;;3.93;;
8887;SDS011;4480;52.370;9.748;2022-07-30T12:20:36;4.17;;;3.87;;
8887;SDS011;4480;52.370;9.748;2022-07-30T12:23:08;3.83;;;3.43;;
8887;SDS011;4480;52.370;9.748;2022-07-30T12:25:37;3.80;;;3.40;;
8887;SDS011;4480;52.370;9.748;2022-07-30T12:28:05;3.10;;;2.90;;
8887;SDS011;4480;52.370;9.748;2022-07-30T12:30:32;3.43;;;3.13;;
8887;SDS011;4480;52.370;9.748;2022-07-30T12:33:04;4.20;;;3.80;;
8887;SDS011;4480;52.370;9.748;2022-07-30T12:35:41;3.97;;;3.50;;
8887;SDS011;4480;52.370;9.748;2022-07-30T12:38:09;3.77;;;3.37;;
8887;SDS011;4480;52.370;9.748;2022-07-30T12:40:49;4.20;;;3.10;;
8887;SDS011;4480;52.370;9.748;2022-07-30T12:43:17;4.20;;;3.80;;
8887;SDS011;4480;52.370;9.748;2022-07-30T12:46:11;3.20;;;2.90;;
8887;SDS011;4480;52.370;9.748;2022-07-30T12:48:55;4.30;;;2.97;;
8887;SDS011;4480;52.370;9.748;2022-07-30T12:51:25;5.87;;;3.70;;
8887;SDS011;4480;52.370;9.748;2022-07-30T12:53:56;3.40;;;3.10;;
8887;SDS011;4480;52.370;9.748;2022-07-30T12:56:25;5.53;;;3.80;;
8887;SDS011;4480;52.370;9.748;2022-07-30T12:58:53;4.30;;;3.57;;
8887;SDS011;4480;52.370;9.748;2022-07-30T13:01:40;5.03;;;3.67;;
8887;SDS011;4480;52.370;9.748;2022-07-30T13:04:10;3.57;;;3.30;;
8887;SDS011;4480;52.370;9.748;2022-07-30T13:06:38;4.00;;;3.37;;
8887;SDS011;4480;52.370;9.748;2022-07-30T13:09:11;4.63;;;3.23;;
8887;SDS011;4480;52.370;9.748;2022-07-30T13:11:44;3.27;;;3.03;;
8887;SDS011;4480;52.370;9.748;2022-07-30T13:14:12;3.40;;;2.83;;
8887;SDS011;4480;52.370;9.748;2022-07-30T13:16:41;3.83;;;3.53;;
8887;SDS011;4480;52.370;9.748;2022-07-30T13:19:10;3.30;;;3.00;;
8887;SDS011;4480;52.370;9.748;2022-07-30T13:21:38;3.57;;;3.10;;
8887;SDS011;4480;52.370;9.748;2022-07-30T13:24:07;3.67;;;3.37;;
8887;SDS011;4480;52.370;9.748;2022-07-30T13:26:35;3.90;;;3.60;;
8887;SDS011;4480;52.370;9.748;2022-07-30T13:29:02;3.30;;;3.00;;
8887;SDS011;4480;52.370;9.748;2022-07-30T13:31:30;3.20;;;2.90;;
8887;SDS011;4480;52.370;9.748;2022-07-30T13:34:04;3.50;;;3.00;;
8887;SDS011;4480;52.370;9.748;2022-07-30T13:36:49;2.97;;;2.70;;
8887;SDS011;4480;52.370;9.748;2022-07-30T13:39:16;3.40;;;3.10;;
8887;SDS011;4480;52.370;9.748;2022-07-30T13:41:43;2.80;;;2.60;;
8887;SDS011;4480;52.370;9.748;2022-07-30T13:44:11;4.73;;;3.00;;
8887;SDS011;4480;52.370;9.748;2022-07-30T13:46:38;2.73;;;2.50;;
8887;SDS011;4480;52.370;9.748;2022-07-30T13:49:05;3.10;;;2.90;;
8887;SDS011;4480;52.370;9.748;2022-07-30T13:51:37;3.60;;;2.93;;
8887;SDS011;4480;52.370;9.748;2022-07-30T13:54:20;3.80;;;3.20;;
8887;SDS011;4480;52.370;9.748;2022-07-30T13:56:48;3.10;;;2.83;;
8887;SDS011;4480;52.370;9.748;2022-07-30T13:59:15;2.73;;;2.53;;
8887;SDS011;4480;52.370;9.748;2022-07-30T14:01:42;4.60;;;3.73;;
8887;SDS011;4480;52.370;9.748;2022-07-30T14:04:10;5.80;;;3.17;;
8887;SDS011;4480;52.370;9.748;2022-07-30T14:06:37;4.10;;;3.70;;
8887;SDS011;4480;52.370;9.748;2022-07-30T14:09:04;3.57;;;3.27;;
8887;SDS011;4480;52.370;9.748;2022-07-30T14:11:33;3.40;;;3.10;;
8887;SDS011;4480;52.370;9.748;2022-07-30T14:14:00;4.10;;;3.60;;
8887;SDS011;4480;52.370;9.748;2022-07-30T14:16:27;3.77;;;3.00;;
8887;SDS011;4480;52.370;9.748;2022-07-30T14:18:55;3.60;;;3.30;;
8887;SDS011;4480;52.370;9.748;2022-07-30T14:21:22;4.40;;;3.40;;
8887;SDS011;4480;52.370;9.748;2022-07-30T14:23:49;5.10;;;2.70;;
8887;SDS011;4480;52.370;9.748;2022-07-30T14:26:16;5.73;;;3.33;;
8887;SDS011;4480;52.370;9.748;2022-07-30T14:28:45;3.20;;;2.90;;
8887;SDS011;4480;52.370;9.748;2022-07-30T14:31:12;4.00;;;3.50;;
8887;SDS011;4480;52.370;9.748;2022-07-30T14:33:39;5.27;;;3.80;;
8887;SDS011;4480;52.370;9.748;2022-07-30T14:36:06;6.87;;;3.80;;
8887;SDS011;4480;52.370;9.748;2022-07-30T14:38:34;3.70;;;3.40;;
8887;SDS011;4480;52.370;9.748;2022-07-30T14:41:03;4.30;;;3.87;;
8887;SDS011;4480;52.370;9.748;2022-07-30T14:43:31;4.17;;;3.60;;
8887;SDS011;4480;52.370;9.748;2022-07-30T14:46:00;5.20;;;3.63;;
8887;SDS011;4480;52.370;9.748;2022-07-30T14:48:27;3.67;;;3.37;;
8887;SDS011;4480;52.370;9.748;2022-07-30T14:50:54;4.47;;;4.10;;
8887;SDS011;4480;52.370;9.748;2022-07-30T14:53:21;3.37;;;3.07;;
8887;SDS011;4480;52.370;9.748;2022-07-30T14:55:48;4.30;;;3.90;;
8887;SDS011;4480;52.370;9.748;2022-07-30T14:58:16;6.87;;;3.57;;
8887;SDS011;4480;52.370;9.748;2022-07-30T15:00:43;4.20;;;3.70;;
8887;SDS011;4480;52.370;9.748;2022-07-30T15:03:11;5.00;;;4.00;;
8887;SDS011;4480;52.370;9.748;2022-07-30T15:05:39;5.83;;;4.30;;
8887;SDS011;4480;52.370;9.748;2022-07-30T15:08:06;5.67;;;4.67;;
8887;SDS011;4480;52.370;9.748;2022-07-30T15:10:33;5.13;;;4.63;;
8887;SDS011;4480;52.370;9.748;2022-07-30T15:13:00;5.67;;;5.00;;
8887;SDS011;4480;52.370;9.748;2022-07-30T15:15:28;4.67;;;4.27;;
8887;SDS011;4480;52.370;9.748;2022-07-30T15:17:55;6.87;;;4.37;;
8887;SDS011;4480;52.370;9.748;2022-07-30T15:20:24;6.57;;;5.80;;
8887;SDS011;4480;52.370;9.748;2022-07-30T15:22:51;4.97;;;4.03;;
8887;SDS011;4480;52.370;9.748;2022-07-30T15:25:18;4.30;;;3.90;;
8887;SDS011;4480;52.370;9.748;2022-07-30T15:27:46;4.97;;;4.47;;
8887;SDS011;4480;52.370;9.748;2022-07-30T15:30:13;4.30;;;4.00;;
8887;SDS011;4480;52.370;9.748;2022-07-30T15:32:40;4.80;;;4.30;;
8887;SDS011;4480;52.370;9.748;2022-07-30T15:35:08;7.43;;;4.67;;
8887;SDS011;4480;52.370;9.748;2022-07-30T15:37:37;4.20;;;3.80;;
8887;SDS011;4480;52.370;9.748;2022-07-30T15:40:05;7.00;;;5.00;;
8887;SDS011;4480;52.370;9.748;2022-07-30T15:42:33;5.50;;;5.00;;
8887;SDS011;4480;52.370;9.748;2022-07-30T15:45:01;6.37;;;4.53;;
8887;SDS011;4480;52.370;9.748;2022-07-30T15:47:29;8.10;;;4.60;;
8887;SDS011;4480;52.370;9.748;2022-07-30T15:49:56;4.87;;;4.30;;
8887;SDS011;4480;52.370;9.748;2022-07-30T15:52:23;6.83;;;5.07;;